createdAt,value
2018-06-09T00:01:01.598Z,17.3
2018-06-09T00:02:08.798Z,17.3
2018-06-09T00:03:15.735Z,17.3
2018-06-09T00:04:22.948Z,17.3
2018-06-09T00:05:30.151Z,17.2
2018-06-09T00:06:37.352Z,17.2
2018-06-09T00:07:44.561Z,17.2
2018-06-09T00:08:51.761Z,17.3
2018-06-09T00:09:58.970Z,17.3
2018-06-09T00:11:06.177Z,17.3
2018-06-09T00:12:13.399Z,17.3
2018-06-09T00:13:20.327Z,17.3
2018-06-09T00:14:27.262Z,17.2
2018-06-09T00:15:34.468Z,17.2
2018-06-09T00:16:41.675Z,17.2
2018-06-09T00:17:48.883Z,17.2
2018-06-09T00:18:56.131Z,17.2
2018-06-09T00:20:03.069Z,17.3
2018-06-09T00:21:10.274Z,17.3
2018-06-09T00:22:17.487Z,17.3
2018-06-09T00:23:24.686Z,17.3
2018-06-09T00:24:31.895Z,17.4
2018-06-09T00:25:39.111Z,17.3
2018-06-09T00:26:46.320Z,17.3
2018-06-09T00:27:53.532Z,17.3
2018-06-09T00:29:00.740Z,17.2
2018-06-09T00:30:07.675Z,17.3
2018-06-09T00:31:14.880Z,17.3
2018-06-09T00:32:22.087Z,17.3
2018-06-09T00:33:29.290Z,17.4
2018-06-09T00:34:36.501Z,17.4
2018-06-09T00:35:43.711Z,17.4
2018-06-09T00:36:50.915Z,17.4
2018-06-09T00:37:58.124Z,17.4
2018-06-09T00:39:05.337Z,17.4
2018-06-09T00:40:12.556Z,17.3
2018-06-09T00:41:19.760Z,17.3
2018-06-09T00:42:26.966Z,17.3
2018-06-09T00:43:34.174Z,17.2
2018-06-09T00:44:41.380Z,17.3
2018-06-09T00:45:48.590Z,17.3
2018-06-09T00:46:55.808Z,17.3
2018-06-09T00:48:03.023Z,17.3
2018-06-09T00:49:10.228Z,17.3
2018-06-09T00:50:17.483Z,17.3
2018-06-09T00:51:24.754Z,17.2
2018-06-09T00:52:31.688Z,17.2
2018-06-09T00:53:38.904Z,17.2
2018-06-09T00:54:46.124Z,17.2
2018-06-09T00:55:53.055Z,17.1
2018-06-09T00:57:00.267Z,17.1
2018-06-09T00:58:07.504Z,17.1
2018-06-09T00:59:14.442Z,17.1
2018-06-09T01:00:21.654Z,17.1
2018-06-09T01:01:28.865Z,17.1
2018-06-09T01:02:36.067Z,17.1
2018-06-09T01:03:42.999Z,17.1
2018-06-09T01:04:50.206Z,17.1
2018-06-09T01:05:57.139Z,17
2018-06-09T01:07:04.344Z,17.1
2018-06-09T01:08:11.548Z,17.1
2018-06-09T01:09:18.749Z,17
2018-06-09T01:10:25.953Z,16.9
2018-06-09T01:11:33.172Z,16.9
2018-06-09T01:12:40.372Z,16.9
2018-06-09T01:13:47.576Z,16.9
2018-06-09T01:14:54.784Z,16.8
2018-06-09T01:16:01.991Z,16.8
2018-06-09T01:17:09.198Z,16.8
2018-06-09T01:18:16.404Z,16.8
2018-06-09T01:19:23.613Z,16.8
2018-06-09T01:20:30.816Z,16.8
2018-06-09T01:21:38.427Z,16.8
2018-06-09T01:22:45.635Z,16.8
2018-06-09T01:23:52.852Z,16.7
2018-06-09T01:25:00.082Z,16.7
2018-06-09T01:26:07.286Z,16.7
2018-06-09T01:27:14.523Z,16.7
2018-06-09T01:28:21.729Z,16.7
2018-06-09T01:29:28.934Z,16.7
2018-06-09T01:30:35.866Z,16.7
2018-06-09T01:31:42.802Z,16.7
2018-06-09T01:32:50.004Z,16.7
2018-06-09T01:33:57.209Z,16.7
2018-06-09T01:35:04.412Z,16.6
2018-06-09T01:36:11.619Z,16.6
2018-06-09T01:37:18.823Z,16.6
2018-06-09T01:38:26.031Z,16.6
2018-06-09T01:39:33.234Z,16.6
2018-06-09T01:40:40.471Z,16.6
2018-06-09T01:41:47.678Z,16.6
2018-06-09T01:42:54.886Z,16.6
2018-06-09T01:44:02.088Z,16.5
2018-06-09T01:45:09.297Z,16.5
2018-06-09T01:46:16.225Z,16.5
2018-06-09T01:47:23.434Z,16.5
2018-06-09T01:48:30.641Z,16.5
2018-06-09T01:49:37.847Z,16.5
2018-06-09T01:50:45.067Z,16.5
2018-06-09T01:51:52.270Z,16.5
2018-06-09T01:52:59.478Z,16.5
2018-06-09T01:54:06.685Z,16.5
2018-06-09T01:55:13.892Z,16.5
2018-06-09T01:56:20.830Z,16.5
2018-06-09T01:57:28.030Z,16.6
2018-06-09T01:58:35.242Z,16.6
2018-06-09T01:59:42.449Z,16.6
2018-06-09T02:00:49.654Z,16.6
2018-06-09T02:01:56.858Z,16.6
2018-06-09T02:03:03.784Z,16.6
2018-06-09T02:04:10.989Z,16.6
2018-06-09T02:05:18.223Z,16.5
2018-06-09T02:06:25.427Z,16.5
2018-06-09T02:07:32.630Z,16.5
2018-06-09T02:08:39.834Z,16.5
2018-06-09T02:09:47.040Z,16.5
2018-06-09T02:10:53.975Z,16.5
2018-06-09T02:12:01.177Z,16.5
2018-06-09T02:13:08.388Z,16.4
2018-06-09T02:14:15.589Z,16.4
2018-06-09T02:15:22.791Z,16.4
2018-06-09T02:16:29.721Z,16.4
2018-06-09T02:17:36.921Z,16.4
2018-06-09T02:18:43.857Z,16.3
2018-06-09T02:19:51.064Z,16.4
2018-06-09T02:20:58.269Z,16.4
2018-06-09T02:22:05.208Z,16.3
2018-06-09T02:23:12.418Z,16.3
2018-06-09T02:24:19.622Z,16.3
2018-06-09T02:25:26.567Z,16.3
2018-06-09T02:26:33.768Z,16.3
2018-06-09T02:27:40.974Z,16.3
2018-06-09T02:28:48.183Z,16.4
2018-06-09T02:29:55.388Z,16.4
2018-06-09T02:31:02.320Z,16.4
2018-06-09T02:32:09.523Z,16.4
2018-06-09T02:33:16.734Z,16.4
2018-06-09T02:34:23.947Z,16.4
2018-06-09T02:35:31.156Z,16.3
2018-06-09T02:36:38.362Z,16.3
2018-06-09T02:37:45.568Z,16.3
2018-06-09T02:38:52.775Z,16.3
2018-06-09T02:39:59.703Z,16.3
2018-06-09T02:41:06.914Z,16.4
2018-06-09T02:42:14.125Z,16.4
2018-06-09T02:43:21.340Z,16.4
2018-06-09T02:44:28.544Z,16.4
2018-06-09T02:45:35.213Z,16.4
2018-06-09T02:46:42.425Z,16.4
2018-06-09T02:47:49.631Z,16.4
2018-06-09T02:48:56.875Z,16.4
2018-06-09T02:50:04.090Z,16.4
2018-06-09T02:51:11.300Z,16.4
2018-06-09T02:52:18.508Z,16.5
2018-06-09T02:53:25.716Z,16.5
2018-06-09T02:54:32.929Z,16.5
2018-06-09T02:55:39.859Z,16.5
2018-06-09T02:56:46.796Z,16.6
2018-06-09T02:57:53.718Z,16.6
2018-06-09T02:59:00.925Z,16.7
2018-06-09T03:00:08.145Z,16.7
2018-06-09T03:01:15.349Z,16.7
2018-06-09T03:02:22.556Z,16.8
2018-06-09T03:03:29.497Z,16.8
2018-06-09T03:04:36.427Z,16.8
2018-06-09T03:05:43.628Z,16.9
2018-06-09T03:06:50.595Z,16.9
2018-06-09T03:07:57.803Z,16.9
2018-06-09T03:09:05.012Z,16.9
2018-06-09T03:10:26.873Z,17
2018-06-09T03:11:34.082Z,17
2018-06-09T03:12:41.339Z,17
2018-06-09T03:13:48.536Z,17
2018-06-09T03:14:55.743Z,17
2018-06-09T03:16:02.948Z,17
2018-06-09T03:17:10.158Z,17.1
2018-06-09T03:18:17.367Z,17.1
2018-06-09T03:19:24.576Z,17.1
2018-06-09T03:20:31.780Z,17.1
2018-06-09T03:21:38.996Z,17.1
2018-06-09T03:22:46.201Z,17.1
2018-06-09T03:23:53.414Z,17
2018-06-09T03:25:00.617Z,17
2018-06-09T03:26:07.824Z,17
2018-06-09T03:27:15.033Z,17
2018-06-09T03:28:21.969Z,17
2018-06-09T03:29:29.178Z,17
2018-06-09T03:30:36.387Z,17
2018-06-09T03:31:43.594Z,17
2018-06-09T03:32:50.535Z,17
2018-06-09T03:33:57.460Z,16.9
2018-06-09T03:35:04.666Z,16.9
2018-06-09T03:36:11.872Z,16.9
2018-06-09T03:37:19.086Z,17
2018-06-09T03:38:26.289Z,16.9
2018-06-09T03:39:33.499Z,16.9
2018-06-09T03:40:40.432Z,16.9
2018-06-09T03:41:47.637Z,16.9
2018-06-09T03:42:54.836Z,17
2018-06-09T03:44:02.044Z,17
2018-06-09T03:45:09.250Z,17
2018-06-09T03:46:16.459Z,17
2018-06-09T03:47:23.664Z,17
2018-06-09T03:48:30.871Z,17
2018-06-09T03:49:38.077Z,17
2018-06-09T03:50:45.297Z,17
2018-06-09T03:51:52.506Z,17.1
2018-06-09T03:52:59.705Z,17.1
2018-06-09T03:54:06.917Z,17
2018-06-09T03:55:14.127Z,17
2018-06-09T03:56:21.334Z,17
2018-06-09T03:57:28.536Z,17
2018-06-09T03:58:35.752Z,17
2018-06-09T03:59:42.686Z,17
2018-06-09T04:00:49.891Z,17
2018-06-09T04:01:57.097Z,17
2018-06-09T04:03:18.955Z,17
2018-06-09T04:04:25.907Z,17
2018-06-09T04:05:33.104Z,17
2018-06-09T04:06:40.311Z,17.1
2018-06-09T04:07:47.522Z,17
2018-06-09T04:08:54.825Z,17
2018-06-09T04:10:02.161Z,17
2018-06-09T04:11:09.365Z,17.1
2018-06-09T04:12:16.574Z,17.1
2018-06-09T04:13:23.780Z,17.1
2018-06-09T04:14:30.715Z,17.1
2018-06-09T04:15:37.916Z,17.1
2018-06-09T04:16:45.127Z,17.1
2018-06-09T04:17:52.336Z,17.1
2018-06-09T04:18:59.534Z,17.1
2018-06-09T04:20:06.738Z,17.1
2018-06-09T04:21:13.946Z,17.1
2018-06-09T04:22:21.149Z,17.1
2018-06-09T04:23:28.361Z,17.1
2018-06-09T04:24:35.566Z,17.1
2018-06-09T04:25:42.771Z,17.1
2018-06-09T04:26:49.976Z,17.1
2018-06-09T04:27:57.182Z,17.1
2018-06-09T04:29:04.389Z,17.2
2018-06-09T04:30:11.595Z,17.2
2018-06-09T04:31:18.800Z,17.2
2018-06-09T04:32:26.008Z,17.2
2018-06-09T04:33:33.247Z,17.3
2018-06-09T04:34:40.199Z,17.3
2018-06-09T04:35:47.398Z,17.3
2018-06-09T04:36:54.636Z,17.3
2018-06-09T04:38:01.841Z,17.4
2018-06-09T04:39:09.052Z,17.4
2018-06-09T04:40:16.260Z,17.4
2018-06-09T04:41:23.468Z,17.4
2018-06-09T04:42:30.676Z,17.4
2018-06-09T04:43:37.881Z,17.5
2018-06-09T04:44:45.089Z,17.5
2018-06-09T04:45:52.310Z,17.5
2018-06-09T04:46:59.517Z,17.5
2018-06-09T04:48:06.724Z,17.5
2018-06-09T04:49:13.659Z,17.5
2018-06-09T04:50:20.873Z,17.5
2018-06-09T04:51:28.077Z,17.5
2018-06-09T04:52:35.283Z,17.6
2018-06-09T04:53:42.220Z,17.6
2018-06-09T04:54:49.439Z,17.6
2018-06-09T04:55:56.644Z,17.6
2018-06-09T04:57:03.853Z,17.7
2018-06-09T04:58:11.059Z,17.7
2018-06-09T04:59:18.423Z,17.7
2018-06-09T05:00:25.832Z,17.8
2018-06-09T05:01:33.036Z,17.8
2018-06-09T05:02:40.000Z,17.8
2018-06-09T05:03:47.209Z,17.9
2018-06-09T05:04:54.412Z,17.9
2018-06-09T05:06:01.616Z,18
2018-06-09T05:07:08.906Z,18.1
2018-06-09T05:08:16.130Z,18.1
2018-06-09T05:09:23.338Z,18.2
2018-06-09T05:10:30.546Z,18.2
2018-06-09T05:11:37.754Z,18.3
2018-06-09T05:12:44.965Z,18.3
2018-06-09T05:13:51.892Z,18.4
2018-06-09T05:14:59.099Z,18.4
2018-06-09T05:16:06.312Z,18.5
2018-06-09T05:17:13.516Z,18.5
2018-06-09T05:18:21.040Z,18.6
2018-06-09T05:19:28.370Z,18.7
2018-06-09T05:20:35.305Z,18.7
2018-06-09T05:21:42.519Z,18.7
2018-06-09T05:22:49.727Z,18.9
2018-06-09T05:23:56.654Z,19
2018-06-09T05:25:03.866Z,19.1
2018-06-09T05:26:11.078Z,19.3
2018-06-09T05:27:17.735Z,19.4
2018-06-09T05:28:24.942Z,19.5
2018-06-09T05:29:32.155Z,19.6
2018-06-09T05:30:39.362Z,19.8
2018-06-09T05:31:46.569Z,19.9
2018-06-09T05:32:53.506Z,20.1
2018-06-09T05:34:00.719Z,20.2
2018-06-09T05:35:07.931Z,20.3
2018-06-09T05:36:15.143Z,20.4
2018-06-09T05:37:22.346Z,20.5
2018-06-09T05:38:29.552Z,20.6
2018-06-09T05:39:36.756Z,20.8
2018-06-09T05:40:43.972Z,21
2018-06-09T05:41:50.912Z,21.1
2018-06-09T05:42:57.843Z,21.3
2018-06-09T05:44:05.048Z,21.3
2018-06-09T05:45:12.260Z,21.4
2018-06-09T05:46:19.464Z,21.5
2018-06-09T05:47:26.675Z,21.7
2018-06-09T05:48:33.888Z,21.8
2018-06-09T05:49:41.100Z,22
2018-06-09T05:50:48.311Z,22.2
2018-06-09T05:51:55.524Z,22.4
2018-06-09T05:53:02.729Z,22.6
2018-06-09T05:54:09.962Z,22.8
2018-06-09T05:55:17.172Z,22.8
2018-06-09T05:56:24.392Z,22.9
2018-06-09T05:57:31.326Z,23
2018-06-09T05:58:38.535Z,22.9
2018-06-09T05:59:45.464Z,23.1
2018-06-09T06:00:52.417Z,23.2
2018-06-09T06:01:59.356Z,23.3
2018-06-09T06:03:06.671Z,23.2
2018-06-09T06:04:14.087Z,23.2
2018-06-09T06:05:21.339Z,23
2018-06-09T06:06:28.532Z,23
2018-06-09T06:07:35.743Z,22.9
2018-06-09T06:08:42.957Z,22.9
2018-06-09T06:09:50.165Z,23
2018-06-09T06:10:57.376Z,23
2018-06-09T06:12:04.583Z,23
2018-06-09T06:13:11.517Z,23
2018-06-09T06:14:18.187Z,23.1
2018-06-09T06:15:25.394Z,23.2
2018-06-09T06:16:32.611Z,23.2
2018-06-09T06:17:39.823Z,23.3
2018-06-09T06:18:47.163Z,23.2
2018-06-09T06:19:54.459Z,23.1
2018-06-09T06:21:01.671Z,23
2018-06-09T06:22:08.885Z,23.1
2018-06-09T06:23:16.092Z,23.1
2018-06-09T06:24:23.300Z,23.1
2018-06-09T06:25:30.242Z,23.3
2018-06-09T06:26:37.451Z,23.6
2018-06-09T06:27:44.665Z,23.7
2018-06-09T06:28:51.603Z,23.9
2018-06-09T06:29:58.817Z,23.9
2018-06-09T06:31:05.746Z,23.9
2018-06-09T06:32:12.955Z,23.9
2018-06-09T06:33:20.168Z,24
2018-06-09T06:34:27.375Z,24.1
2018-06-09T06:35:34.581Z,24.1
2018-06-09T06:36:41.791Z,24.1
2018-06-09T06:37:48.995Z,24.1
2018-06-09T06:38:56.203Z,24.3
2018-06-09T06:40:03.411Z,24.1
2018-06-09T06:41:10.625Z,24
2018-06-09T06:42:17.843Z,23.9
2018-06-09T06:43:25.054Z,23.9
2018-06-09T06:44:32.262Z,24
2018-06-09T06:45:39.471Z,24.3
2018-06-09T06:46:46.680Z,24.3
2018-06-09T06:47:53.894Z,24.2
2018-06-09T06:49:01.106Z,24.4
2018-06-09T06:50:08.324Z,24.5
2018-06-09T06:51:15.534Z,24.5
2018-06-09T06:52:22.742Z,24.7
2018-06-09T06:53:29.957Z,24.9
2018-06-09T06:54:37.163Z,25.1
2018-06-09T06:55:44.376Z,25.2
2018-06-09T06:56:51.587Z,25.4
2018-06-09T06:57:58.802Z,25.1
2018-06-09T06:59:05.738Z,25
2018-06-09T07:00:12.945Z,25
2018-06-09T07:01:20.162Z,25.2
2018-06-09T07:02:27.378Z,25.5
2018-06-09T07:03:34.601Z,25.8
2018-06-09T07:04:41.539Z,25.9
2018-06-09T07:05:48.746Z,26.1
2018-06-09T07:06:55.954Z,26.3
2018-06-09T07:08:03.162Z,26.4
2018-06-09T07:09:10.377Z,26.3
2018-06-09T07:10:17.591Z,26.3
2018-06-09T07:11:24.803Z,26.1
2018-06-09T07:12:31.744Z,26.2
2018-06-09T07:13:38.950Z,26.3
2018-06-09T07:14:45.888Z,26.3
2018-06-09T07:15:53.093Z,26.3
2018-06-09T07:17:00.305Z,26.4
2018-06-09T07:18:07.519Z,26.6
2018-06-09T07:19:14.727Z,26.8
2018-06-09T07:20:21.665Z,26.9
2018-06-09T07:21:28.912Z,26.8
2018-06-09T07:22:36.122Z,26.9
2018-06-09T07:23:43.056Z,27.1
2018-06-09T07:24:50.270Z,27.3
2018-06-09T07:25:57.482Z,27.2
2018-06-09T07:27:04.421Z,27.3
2018-06-09T07:28:11.623Z,27.5
2018-06-09T07:29:18.838Z,27.6
2018-06-09T07:30:26.047Z,27.7
2018-06-09T07:31:32.982Z,27.6
2018-06-09T07:32:40.196Z,27.6
2018-06-09T07:33:47.408Z,27.9
2018-06-09T07:34:54.615Z,27.9
2018-06-09T07:36:01.828Z,27.9
2018-06-09T07:37:09.038Z,28.2
2018-06-09T07:38:16.255Z,28.3
2018-06-09T07:39:23.476Z,28.4
2018-06-09T07:40:30.412Z,28.6
2018-06-09T07:41:37.624Z,28.7
2018-06-09T07:42:44.834Z,28.9
2018-06-09T07:43:51.766Z,29.1
2018-06-09T07:44:58.982Z,29
2018-06-09T07:46:06.188Z,29
2018-06-09T07:47:13.408Z,29.1
2018-06-09T07:48:20.346Z,29.3
2018-06-09T07:49:27.555Z,29.4
2018-06-09T07:50:34.772Z,29.4
2018-06-09T07:51:41.986Z,29.2
2018-06-09T07:52:48.936Z,29.1
2018-06-09T07:53:56.145Z,29.3
2018-06-09T07:55:03.356Z,29.3
2018-06-09T07:56:10.569Z,29.2
2018-06-09T07:57:17.777Z,29.4
2018-06-09T07:58:24.983Z,29.6
2018-06-09T07:59:46.849Z,29.8
2018-06-09T08:00:54.060Z,30.1
2018-06-09T08:02:01.274Z,30.2
2018-06-09T08:03:08.492Z,30.3
2018-06-09T08:04:15.712Z,30.3
2018-06-09T08:05:22.922Z,30.6
2018-06-09T08:06:29.853Z,30.6
2018-06-09T08:07:37.068Z,30.7
2018-06-09T08:08:44.279Z,30.6
2018-06-09T08:09:51.489Z,30.5
2018-06-09T08:10:58.422Z,30.3
2018-06-09T08:12:05.644Z,30.2
2018-06-09T08:13:12.862Z,30.4
2018-06-09T08:14:20.071Z,30.7
2018-06-09T08:15:27.287Z,31
2018-06-09T08:16:34.217Z,31.2
2018-06-09T08:17:41.434Z,31.1
2018-06-09T08:18:48.651Z,31.2
2018-06-09T08:19:55.589Z,31.3
2018-06-09T08:21:02.798Z,31.4
2018-06-09T08:22:10.008Z,31.5
2018-06-09T08:23:16.942Z,31.7
2018-06-09T08:24:24.155Z,31.9
2018-06-09T08:25:31.397Z,32
2018-06-09T08:26:38.610Z,31.7
2018-06-09T08:27:45.825Z,31.6
2018-06-09T08:28:53.033Z,31.8
2018-06-09T08:30:00.257Z,31.9
2018-06-09T08:31:07.489Z,32
2018-06-09T08:32:14.723Z,31.6
2018-06-09T08:33:21.943Z,31.2
2018-06-09T08:34:29.156Z,31.1
2018-06-09T08:35:36.107Z,31.2
2018-06-09T08:36:43.316Z,31.2
2018-06-09T08:37:50.526Z,31.1
2018-06-09T08:38:57.746Z,31.1
2018-06-09T08:40:04.958Z,31.4
2018-06-09T08:41:12.170Z,31.7
2018-06-09T08:42:19.140Z,31.8
2018-06-09T08:43:26.352Z,32
2018-06-09T08:44:33.011Z,32.1
2018-06-09T08:45:40.224Z,32.2
2018-06-09T08:46:47.437Z,32.5
2018-06-09T08:47:56.266Z,32.9
2018-06-09T08:49:03.621Z,32.4
2018-06-09T08:50:10.837Z,32.3
2018-06-09T08:51:18.052Z,32.7
2018-06-09T08:52:24.992Z,32.7
2018-06-09T08:53:32.220Z,32.6
2018-06-09T08:54:39.339Z,32.8
2018-06-09T08:55:46.859Z,32.8
2018-06-09T08:56:54.182Z,32.9
2018-06-09T08:58:01.453Z,33.1
2018-06-09T08:59:08.667Z,33.2
2018-06-09T09:00:15.880Z,33.6
2018-06-09T09:01:23.092Z,33.7
2018-06-09T09:02:30.310Z,33.7
2018-06-09T09:03:37.533Z,33.8
2018-06-09T09:04:44.753Z,33.9
2018-06-09T09:05:51.976Z,33.9
2018-06-09T09:06:59.190Z,34.1
2018-06-09T09:08:06.409Z,32.9
2018-06-09T09:09:13.625Z,32.5
2018-06-09T09:10:20.301Z,32.4
2018-06-09T09:11:27.520Z,32.2
2018-06-09T09:12:34.737Z,32.5
2018-06-09T09:13:41.953Z,32.8
2018-06-09T09:14:49.187Z,33.3
2018-06-09T09:15:56.120Z,33.8
2018-06-09T09:17:03.334Z,34.1
2018-06-09T09:18:10.565Z,34.4
2018-06-09T09:19:17.226Z,34.6
2018-06-09T09:20:24.172Z,34.6
2018-06-09T09:21:31.394Z,34.7
2018-06-09T09:22:38.614Z,34.5
2018-06-09T09:23:45.850Z,34.3
2018-06-09T09:24:53.065Z,34.1
2018-06-09T09:26:00.292Z,34
2018-06-09T09:27:07.510Z,34.1
2018-06-09T09:28:14.168Z,34
2018-06-09T09:29:21.386Z,34
2018-06-09T09:30:28.607Z,34.1
2018-06-09T09:31:35.824Z,34.2
2018-06-09T09:32:42.765Z,34
2018-06-09T09:33:49.985Z,34.1
2018-06-09T09:34:57.197Z,33.5
2018-06-09T09:36:04.138Z,33.1
2018-06-09T09:37:11.078Z,32.5
2018-06-09T09:38:18.298Z,32.1
2018-06-09T09:39:25.514Z,31.9
2018-06-09T09:40:32.736Z,32.2
2018-06-09T09:41:39.677Z,32.6
2018-06-09T09:42:46.897Z,32.8
2018-06-09T09:43:53.838Z,33
2018-06-09T09:45:01.618Z,33.2
2018-06-09T09:46:08.836Z,33.1
2018-06-09T09:47:16.053Z,33.2
2018-06-09T09:48:23.272Z,33.2
2018-06-09T09:49:07.681Z,33.8
2018-06-09T09:50:14.907Z,33.8
2018-06-09T09:51:22.124Z,33.7
2018-06-09T09:52:29.349Z,33.7
2018-06-09T09:53:36.562Z,33.2
2018-06-09T09:54:43.787Z,33.2
2018-06-09T09:55:51.295Z,33.7
2018-06-09T09:56:58.517Z,34.2
2018-06-09T09:58:05.469Z,34.5
2018-06-09T09:59:12.892Z,34.8
2018-06-09T10:00:20.110Z,35.1
2018-06-09T10:01:26.786Z,34.8
2018-06-09T10:02:33.999Z,34.6
2018-06-09T10:03:41.217Z,34.7
2018-06-09T10:04:48.528Z,34.5
2018-06-09T10:05:55.744Z,34.3
2018-06-09T10:07:02.961Z,34.2
2018-06-09T10:08:10.182Z,34.2
2018-06-09T10:09:17.405Z,34.4
2018-06-09T10:10:24.066Z,34.8
2018-06-09T10:11:31.288Z,34.8
2018-06-09T10:12:38.507Z,34.9
2018-06-09T10:13:45.462Z,34.5
2018-06-09T10:14:52.685Z,34.3
2018-06-09T10:15:59.622Z,34.4
2018-06-09T10:17:06.835Z,34.5
2018-06-09T10:18:14.056Z,34.6
2018-06-09T10:19:21.284Z,34.7
2018-06-09T10:20:28.508Z,34.7
2018-06-09T10:21:35.734Z,34.7
2018-06-09T10:22:57.600Z,34.6
2018-06-09T10:24:04.813Z,34.5
2018-06-09T10:25:12.035Z,34.8
2018-06-09T10:26:18.985Z,35
2018-06-09T10:27:26.418Z,34.9
2018-06-09T10:28:33.356Z,34.6
2018-06-09T10:29:40.307Z,34.5
2018-06-09T10:30:47.555Z,34.4
2018-06-09T10:31:54.767Z,33.9
2018-06-09T10:33:01.994Z,33.7
2018-06-09T10:34:08.965Z,34.1
2018-06-09T10:35:16.178Z,34.3
2018-06-09T10:36:23.396Z,34.2
2018-06-09T10:37:30.335Z,34.3
2018-06-09T10:38:37.650Z,34
2018-06-09T10:39:44.926Z,33.9
2018-06-09T10:40:52.150Z,33.6
2018-06-09T10:41:59.365Z,33.4
2018-06-09T10:43:06.765Z,33.3
2018-06-09T10:44:14.149Z,33.3
2018-06-09T10:45:21.444Z,33.5
2018-06-09T10:46:28.759Z,33.7
2018-06-09T10:47:35.978Z,34.2
2018-06-09T10:48:43.209Z,34.3
2018-06-09T10:49:50.444Z,34.2
2018-06-09T10:50:57.929Z,33.9
2018-06-09T10:52:05.164Z,34.4
2018-06-09T10:53:13.072Z,34.7
2018-06-09T10:54:20.009Z,35
2018-06-09T10:55:26.962Z,35.5
2018-06-09T10:56:33.906Z,35.9
2018-06-09T10:57:40.845Z,36.2
2018-06-09T10:58:48.058Z,36.4
2018-06-09T10:59:55.273Z,36.3
2018-06-09T11:01:02.498Z,36.2
2018-06-09T11:02:09.946Z,36.5
2018-06-09T11:03:17.146Z,36.5
2018-06-09T11:04:24.098Z,36.3
2018-06-09T11:05:31.990Z,36.5
2018-06-09T11:06:39.215Z,36.7
2018-06-09T11:07:46.420Z,36.4
2018-06-09T11:08:53.639Z,35.5
2018-06-09T11:10:00.876Z,34.6
2018-06-09T11:11:08.267Z,33.8
2018-06-09T11:12:15.482Z,33.4
2018-06-09T11:13:22.700Z,33.3
2018-06-09T11:14:29.906Z,33.2
2018-06-09T11:15:37.153Z,33.3
2018-06-09T11:16:44.374Z,33.7
2018-06-09T11:17:51.590Z,33.5
2018-06-09T11:18:58.804Z,33.7
2018-06-09T11:20:06.025Z,34.2
2018-06-09T11:21:13.243Z,34.5
2018-06-09T11:22:20.180Z,35
2018-06-09T11:23:27.399Z,35.4
2018-06-09T11:24:34.353Z,35.8
2018-06-09T11:25:41.572Z,36
2018-06-09T11:26:49.198Z,35.9
2018-06-09T11:27:56.147Z,36.1
2018-06-09T11:29:03.364Z,36
2018-06-09T11:30:10.582Z,35.7
2018-06-09T11:31:17.800Z,35.3
2018-06-09T11:32:25.017Z,35.3
2018-06-09T11:33:32.229Z,35.8
2018-06-09T11:34:40.124Z,36.2
2018-06-09T11:35:47.341Z,36.5
2018-06-09T11:36:54.292Z,36.5
2018-06-09T11:38:01.506Z,36.5
2018-06-09T11:39:08.726Z,36.1
2018-06-09T11:40:15.939Z,36.2
2018-06-09T11:41:22.892Z,35.7
2018-06-09T11:42:30.119Z,35.6
2018-06-09T11:43:37.329Z,35.2
2018-06-09T11:44:44.302Z,35.5
2018-06-09T11:45:51.512Z,35.7
2018-06-09T11:46:58.730Z,35.8
2018-06-09T11:48:05.955Z,35.9
2018-06-09T11:49:13.175Z,35.9
2018-06-09T11:50:19.594Z,36
2018-06-09T11:51:26.821Z,35.9
2018-06-09T11:52:34.043Z,35.9
2018-06-09T11:53:41.260Z,36.3
2018-06-09T11:54:48.216Z,36.5
2018-06-09T11:55:55.432Z,36.4
2018-06-09T11:57:02.370Z,35.9
2018-06-09T11:58:09.326Z,35.5
2018-06-09T11:59:16.549Z,35.2
2018-06-09T12:00:23.765Z,35
2018-06-09T12:01:30.727Z,34.7
2018-06-09T12:02:37.951Z,34.7
2018-06-09T12:03:45.180Z,34.8
2018-06-09T12:04:52.122Z,34.7
2018-06-09T12:05:59.346Z,34.4
2018-06-09T12:07:06.561Z,34
2018-06-09T12:08:13.507Z,33.4
2018-06-09T12:09:20.730Z,33.1
2018-06-09T12:10:27.681Z,33
2018-06-09T12:11:34.911Z,33
2018-06-09T12:12:42.136Z,33.5
2018-06-09T12:13:49.361Z,34
2018-06-09T12:14:56.574Z,34.2
2018-06-09T12:16:03.796Z,34.6
2018-06-09T12:17:11.057Z,34.9
2018-06-09T12:18:18.303Z,35.2
2018-06-09T12:19:25.516Z,35.2
2018-06-09T12:20:32.730Z,35.2
2018-06-09T12:21:39.941Z,35.3
2018-06-09T12:22:47.160Z,35.5
2018-06-09T12:23:54.374Z,35.5
2018-06-09T12:25:01.694Z,35.5
2018-06-09T12:26:08.847Z,35.7
2018-06-09T12:27:16.062Z,35.9
2018-06-09T12:28:23.278Z,36.2
2018-06-09T12:29:30.495Z,36.2
2018-06-09T12:30:37.714Z,36.3
2018-06-09T12:31:44.934Z,36.5
2018-06-09T12:32:52.151Z,36.7
2018-06-09T12:33:59.089Z,36.7
2018-06-09T12:35:06.305Z,36.6
2018-06-09T12:36:13.520Z,36.6
2018-06-09T12:37:20.739Z,36.7
2018-06-09T12:38:27.963Z,36.6
2018-06-09T12:39:34.902Z,36.5
2018-06-09T12:40:42.116Z,36.8
2018-06-09T12:41:49.054Z,36.8
2018-06-09T12:42:56.272Z,36.8
2018-06-09T12:44:04.172Z,36.7
2018-06-09T12:45:11.387Z,36.9
2018-06-09T12:46:18.306Z,37.1
2018-06-09T12:47:25.520Z,37.3
2018-06-09T12:48:32.807Z,37.5
2018-06-09T12:49:40.243Z,37.4
2018-06-09T12:50:47.467Z,37.3
2018-06-09T12:51:55.092Z,37.5
2018-06-09T12:53:02.308Z,37.9
2018-06-09T12:54:09.526Z,38.1
2018-06-09T12:55:16.743Z,38.2
2018-06-09T12:56:23.960Z,38.2
2018-06-09T12:57:31.179Z,38.3
2018-06-09T12:58:38.389Z,38.6
2018-06-09T12:59:45.606Z,38.3
2018-06-09T13:00:52.828Z,37.6
2018-06-09T13:02:00.047Z,37.4
2018-06-09T13:03:07.262Z,37.3
2018-06-09T13:04:14.479Z,37.5
2018-06-09T13:05:21.693Z,37.7
2018-06-09T13:06:28.910Z,37.5
2018-06-09T13:07:36.131Z,37.4
2018-06-09T13:08:43.353Z,37.3
2018-06-09T13:09:50.570Z,37.1
2018-06-09T13:10:57.783Z,37.1
2018-06-09T13:12:05.003Z,37.3
2018-06-09T13:13:12.218Z,37.7
2018-06-09T13:14:19.165Z,37.8
2018-06-09T13:15:26.390Z,37.7
2018-06-09T13:16:33.598Z,37.7
2018-06-09T13:17:40.840Z,37.7
2018-06-09T13:18:48.059Z,37.9
2018-06-09T13:19:55.275Z,38
2018-06-09T13:21:02.500Z,37.7
2018-06-09T13:22:09.762Z,37.5
2018-06-09T13:23:16.964Z,37.3
2018-06-09T13:24:24.185Z,37.3
2018-06-09T13:25:31.399Z,37.4
2018-06-09T13:26:38.625Z,37.3
2018-06-09T13:27:45.850Z,37.1
2018-06-09T13:28:53.058Z,36.9
2018-06-09T13:30:00.277Z,37
2018-06-09T13:31:07.501Z,37.1
2018-06-09T13:32:14.727Z,37
2018-06-09T13:33:21.974Z,36.2
2018-06-09T13:34:29.196Z,35.7
2018-06-09T13:35:36.409Z,35.4
2018-06-09T13:36:43.626Z,35.1
2018-06-09T13:37:50.839Z,34.9
2018-06-09T13:38:58.061Z,34.7
2018-06-09T13:40:05.280Z,34.5
2018-06-09T13:41:12.495Z,34.1
2018-06-09T13:42:19.708Z,34.1
2018-06-09T13:43:26.941Z,34.3
2018-06-09T13:44:33.878Z,34.5
2018-06-09T13:45:41.098Z,34.5
2018-06-09T13:46:48.429Z,34.9
2018-06-09T13:47:55.780Z,35.2
2018-06-09T13:49:03.679Z,35.7
2018-06-09T13:50:10.897Z,36.1
2018-06-09T13:51:18.113Z,36.2
2018-06-09T13:52:25.330Z,36
2018-06-09T13:53:32.546Z,35.9
2018-06-09T13:54:39.857Z,36.1
2018-06-09T13:55:47.326Z,36.3
2018-06-09T13:56:54.547Z,36.5
2018-06-09T13:58:01.758Z,36.5
2018-06-09T13:59:08.973Z,36.5
2018-06-09T14:00:16.189Z,36.5
2018-06-09T14:01:23.419Z,36.7
2018-06-09T14:02:30.726Z,36.8
2018-06-09T14:03:37.944Z,36.6
2018-06-09T14:04:45.160Z,36.5
2018-06-09T14:05:52.374Z,36
2018-06-09T14:06:59.595Z,35.8
2018-06-09T14:08:06.806Z,35.7
2018-06-09T14:09:13.754Z,35.7
2018-06-09T14:10:20.972Z,35.8
2018-06-09T14:11:28.189Z,36
2018-06-09T14:12:35.134Z,36.2
2018-06-09T14:13:42.353Z,36.3
2018-06-09T14:14:49.570Z,36.4
2018-06-09T14:15:56.786Z,36.6
2018-06-09T14:17:04.002Z,36.5
2018-06-09T14:18:11.224Z,36.1
2018-06-09T14:19:18.450Z,35.9
2018-06-09T14:20:25.669Z,35.8
2018-06-09T14:21:32.884Z,35.5
2018-06-09T14:22:40.100Z,35.4
2018-06-09T14:23:47.307Z,35.3
2018-06-09T14:24:54.245Z,34.9
2018-06-09T14:26:01.457Z,34.5
2018-06-09T14:27:08.675Z,34.3
2018-06-09T14:28:15.620Z,34.1
2018-06-09T14:29:22.837Z,34
2018-06-09T14:30:30.051Z,33.8
2018-06-09T14:31:37.274Z,33.8
2018-06-09T14:32:44.600Z,33.8
2018-06-09T14:33:51.946Z,33.9
2018-06-09T14:34:59.164Z,33.9
2018-06-09T14:36:06.374Z,33.4
2018-06-09T14:37:13.592Z,33.1
2018-06-09T14:38:20.810Z,32.2
2018-06-09T14:39:28.024Z,31.4
2018-06-09T14:40:35.237Z,30.8
2018-06-09T14:41:42.454Z,30.4
2018-06-09T14:42:49.694Z,30.1
2018-06-09T14:43:56.916Z,29.9
2018-06-09T14:45:04.129Z,29.6
2018-06-09T14:46:11.344Z,29.2
2018-06-09T14:47:18.561Z,28.9
2018-06-09T14:48:25.781Z,28.7
2018-06-09T14:49:33.043Z,28.5
2018-06-09T14:50:40.250Z,28.3
2018-06-09T14:51:47.644Z,28.3
2018-06-09T14:52:54.624Z,28.3
2018-06-09T14:54:01.840Z,28.4
2018-06-09T14:55:09.057Z,28.6
2018-06-09T14:56:16.000Z,28.6
2018-06-09T14:57:23.214Z,28.8
2018-06-09T14:58:30.437Z,29
2018-06-09T14:59:37.378Z,29
2018-06-09T15:00:44.588Z,28.9
2018-06-09T15:01:51.799Z,28.5